Time;durP1;ratioP1;P1;durP2;ratioP2;P2;SDS_P1;SDS_P2;PMS_P1;PMS_P2;Temp;Humidity;BMP_temperature;BMP_pressure;BME280_temperature;BME280_humidity;BME280_pressure;Samples;Min_cycle;Max_cycle;Signal;HPM_P1;HPM_P2
2022/03/04 00:00:45;;;;;;;22.25;10.75;;;0.20;99.90;;;;;;5030865;28;20103;-50
2022/03/04 00:03:11;;;;;;;22.25;11.23;;;0.30;99.90;;;;;;5030720;28;20052;-50
2022/03/04 00:05:38;;;;;;;24.38;9.93;;;0.80;99.90;;;;;;5031196;28;20384;-50
2022/03/04 00:08:04;;;;;;;22.85;10.00;;;0.30;99.90;;;;;;5030896;28;20047;-50
2022/03/04 00:10:33;;;;;;;21.98;10.02;;;0.10;99.90;;;;;;5029640;28;20465;-54
2022/03/04 00:13:00;;;;;;;19.60;9.15;;;0.20;99.90;;;;;;5030825;28;20049;-52
2022/03/04 00:15:26;;;;;;;24.95;10.75;;;0.10;99.90;;;;;;5030455;28;20118;-52
2022/03/04 00:17:51;;;;;;;24.90;11.30;;;0.10;99.90;;;;;;5030566;28;20045;-50
2022/03/04 00:20:17;;;;;;;26.65;10.05;;;0.40;99.90;;;;;;5029918;28;20049;-53
2022/03/04 00:22:44;;;;;;;25.30;11.18;;;-0.10;99.90;;;;;;5030510;28;20562;-51
2022/03/04 00:25:10;;;;;;;28.02;11.73;;;-0.20;99.90;;;;;;5030425;28;20029;-50
2022/03/04 00:27:36;;;;;;;27.08;11.15;;;-0.30;99.90;;;;;;5030707;28;20743;-51
2022/03/04 00:30:02;;;;;;;25.48;11.43;;;-0.30;99.90;;;;;;5030661;28;20068;-52
2022/03/04 00:32:28;;;;;;;28.40;12.48;;;-0.50;99.90;;;;;;5030218;28;20046;-53
2022/03/04 00:34:53;;;;;;;24.48;11.57;;;-0.20;99.90;;;;;;5030623;28;20114;-52
2022/03/04 00:37:19;;;;;;;27.10;12.63;;;-0.60;99.90;;;;;;5028756;28;20403;-52
2022/03/04 00:39:45;;;;;;;32.95;12.50;;;-0.60;99.90;;;;;;5030496;28;20128;-53
2022/03/04 00:42:11;;;;;;;31.77;13.30;;;-0.60;99.90;;;;;;5030255;28;20435;-50
2022/03/04 00:44:37;;;;;;;32.38;12.50;;;-0.90;99.90;;;;;;5030501;28;20044;-50
2022/03/04 00:47:04;;;;;;;36.33;13.23;;;-1.00;99.90;;;;;;5030655;28;20041;-51
2022/03/04 00:49:30;;;;;;;30.60;13.35;;;-1.20;99.90;;;;;;5030131;28;20361;-53
2022/03/04 00:51:56;;;;;;;37.63;14.20;;;-1.10;99.90;;;;;;5032731;28;20128;-50
2022/03/04 00:54:22;;;;;;;39.80;14.05;;;-1.30;99.90;;;;;;5034202;28;20395;-51
2022/03/04 00:56:48;;;;;;;35.30;14.18;;;-1.30;99.90;;;;;;5034081;28;20514;-53
2022/03/04 00:59:14;;;;;;;38.72;14.15;;;-1.30;99.90;;;;;;5034025;28;20045;-50
2022/03/04 01:01:40;;;;;;;43.08;16.30;;;-1.30;99.90;;;;;;5034325;28;20045;-52
2022/03/04 01:04:06;;;;;;;41.78;14.45;;;-1.40;99.90;;;;;;5034301;28;20090;-51
2022/03/04 01:06:32;;;;;;;41.25;15.30;;;-1.50;99.90;;;;;;5033772;28;20057;-50
2022/03/04 01:08:57;;;;;;;42.22;16.70;;;-1.50;99.90;;;;;;5034061;28;20047;-52
2022/03/04 01:11:23;;;;;;;44.10;15.80;;;-1.60;99.90;;;;;;5033413;28;20048;-50
2022/03/04 01:13:49;;;;;;;45.50;17.45;;;-1.60;99.90;;;;;;5033595;28;20107;-52
2022/03/04 01:16:15;;;;;;;41.80;15.90;;;-1.60;99.90;;;;;;5033496;28;20124;-53
2022/03/04 01:18:41;;;;;;;44.83;17.00;;;-1.60;99.90;;;;;;5034003;28;20041;-49
2022/03/04 01:21:06;;;;;;;44.80;16.50;;;-1.50;99.90;;;;;;5033780;28;20075;-52
2022/03/04 01:23:32;;;;;;;47.05;16.92;;;-1.50;99.90;;;;;;5033987;28;20128;-52
2022/03/04 01:25:58;;;;;;;44.22;16.25;;;-1.50;99.90;;;;;;5034245;28;20479;-50
2022/03/04 01:28:24;;;;;;;50.15;18.25;;;-1.60;99.90;;;;;;5033688;28;20037;-52
2022/03/04 01:30:49;;;;;;;50.40;18.52;;;-1.60;99.90;;;;;;5033812;28;20033;-49
2022/03/04 01:33:15;;;;;;;52.92;17.60;;;-1.60;99.90;;;;;;5033271;28;20049;-51
2022/03/04 01:35:42;;;;;;;49.22;17.30;;;-1.70;99.90;;;;;;5033781;28;20080;-52
2022/03/04 01:38:07;;;;;;;43.80;17.50;;;-1.60;99.90;;;;;;5034010;28;20124;-49
2022/03/04 01:40:35;;;;;;;48.15;16.85;;;-1.60;99.90;;;;;;5033215;28;20486;-52
2022/03/04 01:43:00;;;;;;;49.80;17.23;;;-1.70;99.90;;;;;;5033309;28;20053;-50
2022/03/04 01:45:26;;;;;;;51.75;16.27;;;-1.80;99.90;;;;;;5033123;28;20092;-53
2022/03/04 01:47:52;;;;;;;53.83;18.45;;;-1.80;99.90;;;;;;5033146;28;20093;-49
2022/03/04 01:50:17;;;;;;;46.10;17.02;;;-1.80;99.90;;;;;;5033240;28;20049;-52
2022/03/04 01:52:43;;;;;;;52.08;18.75;;;-1.90;99.90;;;;;;5033379;28;20045;-51
2022/03/04 01:55:09;;;;;;;54.92;17.83;;;-1.90;99.90;;;;;;5033108;28;20052;-49
2022/03/04 01:57:37;;;;;;;55.90;17.55;;;-1.90;99.90;;;;;;5033169;28;20049;-53
2022/03/04 02:00:07;;;;;;;57.67;19.60;;;-2.00;99.90;;;;;;5033240;28;20132;-49
2022/03/04 02:02:33;;;;;;;50.42;17.48;;;-2.00;99.90;;;;;;5032596;28;20057;-53
2022/03/04 02:04:59;;;;;;;60.70;20.08;;;-2.10;99.90;;;;;;5031534;28;20045;-50
2022/03/04 02:07:24;;;;;;;55.55;18.02;;;-2.10;99.90;;;;;;5032115;28;20092;-52
2022/03/04 02:09:50;;;;;;;48.17;17.88;;;-2.20;99.90;;;;;;5032891;28;20044;-50
2022/03/04 02:12:16;;;;;;;51.30;19.05;;;-2.20;99.90;;;;;;5033368;28;20133;-49
2022/03/04 02:14:42;;;;;;;54.63;18.23;;;-2.30;99.90;;;;;;5032461;28;20068;-52
2022/03/04 02:17:07;;;;;;;54.28;17.67;;;-2.40;99.90;;;;;;5032848;28;20476;-49
2022/03/04 02:19:33;;;;;;;49.00;17.20;;;-2.40;99.90;;;;;;5032558;28;20151;-51
2022/03/04 02:22:00;;;;;;;58.47;19.17;;;-2.40;99.90;;;;;;5032628;28;20094;-49
2022/03/04 02:24:28;;;;;;;58.67;18.13;;;-2.40;99.90;;;;;;5032628;28;20046;-53
2022/03/04 02:26:55;;;;;;;60.55;19.13;;;-2.50;99.90;;;;;;5032391;28;20045;-50
2022/03/04 02:29:22;;;;;;;58.45;19.42;;;-2.50;99.90;;;;;;5032655;28;20098;-52
2022/03/04 02:31:49;;;;;;;60.05;22.55;;;-2.40;99.90;;;;;;5032442;28;20485;-49
2022/03/04 02:34:15;;;;;;;58.97;19.67;;;-2.40;99.90;;;;;;5032705;28;20203;-50
2022/03/04 02:36:41;;;;;;;62.72;19.52;;;-2.40;99.90;;;;;;5032315;28;20369;-50
2022/03/04 02:39:07;;;;;;;71.75;20.33;;;-2.50;99.90;;;;;;5032499;28;20060;-49
2022/03/04 02:41:34;;;;;;;64.93;20.38;;;-2.50;99.90;;;;;;5032373;28;20049;-52
2022/03/04 02:44:02;;;;;;;66.20;20.27;;;-2.60;99.90;;;;;;5032731;28;20041;-49
2022/03/04 02:46:27;;;;;;;64.65;21.65;;;-2.60;99.90;;;;;;5032095;28;20103;-51
2022/03/04 02:48:53;;;;;;;65.43;20.67;;;-2.50;99.90;;;;;;5032482;28;20467;-48
2022/03/04 02:51:19;;;;;;;62.15;19.95;;;-2.50;99.90;;;;;;5032332;28;20071;-49
2022/03/04 02:53:45;;;;;;;69.10;21.45;;;-2.30;99.90;;;;;;5032160;28;20155;-51
2022/03/04 02:56:10;;;;;;;72.35;21.27;;;-2.20;99.90;;;;;;5031790;28;20042;-48
2022/03/04 02:58:36;;;;;;;70.32;20.75;;;-2.10;99.90;;;;;;5031834;28;20037;-51
2022/03/04 03:01:02;;;;;;;70.32;22.02;;;-2.00;99.90;;;;;;5032195;28;20756;-48
2022/03/04 03:03:27;;;;;;;61.47;19.85;;;-1.90;99.90;;;;;;5031943;28;20128;-49
2022/03/04 03:05:53;;;;;;;77.50;22.45;;;-1.60;99.90;;;;;;5032272;28;20402;-53
2022/03/04 03:08:19;;;;;;;71.53;22.40;;;-1.70;99.90;;;;;;5032105;28;20038;-49
2022/03/04 03:10:44;;;;;;;75.97;23.13;;;-1.60;99.90;;;;;;5031932;28;20049;-48
2022/03/04 03:13:10;;;;;;;69.65;22.30;;;-1.50;99.90;;;;;;5031756;28;20041;-49
2022/03/04 03:15:36;;;;;;;70.95;20.15;;;-1.50;99.90;;;;;;5030675;28;20065;-50
2022/03/04 03:18:02;;;;;;;80.07;23.63;;;-1.50;99.90;;;;;;5031773;28;20120;-53
2022/03/04 03:20:28;;;;;;;78.28;23.58;;;-0.40;99.90;;;;;;5031539;28;20050;-49
2022/03/04 03:22:54;;;;;;;73.35;26.83;;;-1.50;99.90;;;;;;5031700;28;20042;-50
2022/03/04 03:25:20;;;;;;;71.53;21.65;;;-1.40;99.90;;;;;;5031345;28;20049;-50
2022/03/04 03:27:46;;;;;;;71.82;22.02;;;-1.40;99.90;;;;;;5031618;28;20045;-49
2022/03/04 03:30:12;;;;;;;75.07;21.45;;;-1.40;99.90;;;;;;5031622;28;20033;-53
2022/03/04 03:32:38;;;;;;;86.00;25.85;;;-1.40;99.90;;;;;;5031530;28;20400;-49
2022/03/04 03:35:05;;;;;;;70.82;23.75;;;-1.30;99.90;;;;;;5031332;28;20044;-52
2022/03/04 03:37:30;;;;;;;83.50;25.80;;;-1.30;99.90;;;;;;5031402;28;20477;-49
2022/03/04 03:39:56;;;;;;;78.75;26.10;;;-1.30;99.90;;;;;;5031302;28;20156;-48
2022/03/04 03:42:22;;;;;;;78.03;22.65;;;-1.30;99.90;;;;;;5031486;28;20566;-51
2022/03/04 03:44:48;;;;;;;72.53;23.08;;;-1.30;99.90;;;;;;5031025;28;20049;-49
2022/03/04 03:47:13;;;;;;;62.13;20.65;;;-1.30;99.90;;;;;;5031348;28;20045;-51
2022/03/04 03:49:39;;;;;;;70.40;22.52;;;-1.40;99.90;;;;;;5030774;28;20041;-51
2022/03/04 03:52:06;;;;;;;69.30;22.55;;;-1.40;99.90;;;;;;5031030;28;20049;-48
2022/03/04 03:54:32;;;;;;;73.05;22.83;;;-1.40;99.90;;;;;;5031378;28;20395;-51
2022/03/04 03:56:57;;;;;;;73.90;24.17;;;-1.40;99.90;;;;;;5031191;28;20045;-49
2022/03/04 03:59:23;;;;;;;69.43;22.63;;;-1.40;99.90;;;;;;5031310;28;20041;-51
2022/03/04 04:01:49;;;;;;;64.28;21.02;;;-1.30;99.90;;;;;;5030435;28;20083;-51
2022/03/04 04:04:15;;;;;;;66.95;22.63;;;-1.40;99.90;;;;;;5031106;28;20053;-50
2022/03/04 04:06:42;;;;;;;66.10;22.30;;;-1.30;99.90;;;;;;5030668;28;20506;-52
2022/03/04 04:09:08;;;;;;;68.50;21.40;;;-1.40;99.90;;;;;;5029752;28;20048;-51
2022/03/04 04:11:35;;;;;;;66.82;23.90;;;-1.30;99.90;;;;;;5030924;28;20045;-52
2022/03/04 04:14:08;;;;;;;65.35;23.60;;;-1.40;99.90;;;;;;5030397;28;20060;-49
2022/03/04 04:16:34;;;;;;;71.30;22.80;;;-1.40;99.90;;;;;;5029223;28;20482;-50
2022/03/04 04:19:01;;;;;;;65.15;20.70;;;-1.50;99.90;;;;;;5030518;28;20041;-52
2022/03/04 04:21:27;;;;;;;70.75;23.60;;;-1.40;99.90;;;;;;5030899;28;20048;-52
2022/03/04 04:23:54;;;;;;;69.75;22.60;;;-1.40;99.90;;;;;;5030841;28;20041;-51
2022/03/04 04:26:21;;;;;;;71.45;24.23;;;-1.50;99.90;;;;;;5030707;28;20041;-50
2022/03/04 04:28:47;;;;;;;74.75;24.42;;;-1.40;99.90;;;;;;5030533;28;20049;-49
2022/03/04 04:31:13;;;;;;;82.00;25.55;;;-1.40;99.90;;;;;;5030697;28;20091;-52
2022/03/04 04:33:39;;;;;;;86.05;25.80;;;-1.40;99.90;;;;;;5030388;28;20487;-50
2022/03/04 04:36:05;;;;;;;70.53;25.98;;;-1.30;99.90;;;;;;5030200;28;20292;-49
2022/03/04 04:38:31;;;;;;;70.90;24.38;;;-1.20;99.90;;;;;;5029194;28;20069;-50
2022/03/04 04:40:57;;;;;;;70.60;23.70;;;-1.30;99.90;;;;;;5030232;28;20214;-50
2022/03/04 04:43:23;;;;;;;76.20;26.00;;;-1.30;99.90;;;;;;5030544;28;20080;-49
2022/03/04 04:45:50;;;;;;;77.72;25.40;;;-1.20;99.90;;;;;;5030244;28;20048;-49
2022/03/04 04:48:16;;;;;;;77.45;24.27;;;-1.20;99.90;;;;;;5029436;28;20057;-52
2022/03/04 04:50:42;;;;;;;64.30;24.70;;;-1.20;99.90;;;;;;5030359;28;20124;-52
2022/03/04 04:53:08;;;;;;;57.63;21.33;;;-1.10;99.90;;;;;;5030368;28;20124;-50
2022/03/04 04:55:33;;;;;;;69.63;24.27;;;-1.20;99.90;;;;;;5030542;28;20410;-53
2022/03/04 04:57:59;;;;;;;64.55;21.80;;;-1.20;99.90;;;;;;5030317;28;20041;-49
2022/03/04 05:00:25;;;;;;;61.55;21.23;;;-1.20;99.90;;;;;;5029759;28;20136;-49
2022/03/04 05:02:51;;;;;;;63.53;23.48;;;-1.20;99.90;;;;;;5028939;28;20030;-49
2022/03/04 05:05:17;;;;;;;66.20;25.08;;;-1.10;99.90;;;;;;5030272;28;20502;-52
2022/03/04 05:07:43;;;;;;;61.60;23.88;;;-1.10;99.90;;;;;;5030228;28;20045;-51
2022/03/04 05:10:09;;;;;;;59.75;22.52;;;-1.20;99.90;;;;;;5030217;28;20580;-49
2022/03/04 05:12:34;;;;;;;62.58;22.33;;;-1.20;99.90;;;;;;5030219;28;20128;-51
2022/03/04 05:15:00;;;;;;;56.35;20.95;;;-1.20;99.90;;;;;;5029831;28;20156;-53
2022/03/04 05:17:26;;;;;;;58.28;20.02;;;-1.10;99.90;;;;;;5023802;28;20041;-50
2022/03/04 05:19:51;;;;;;;64.13;24.80;;;-1.20;99.90;;;;;;5020883;28;20049;-46
2022/03/04 05:22:17;;;;;;;58.45;18.92;;;-1.10;99.90;;;;;;5029721;28;20045;-43
2022/03/04 05:24:43;;;;;;;60.60;23.70;;;-1.10;99.90;;;;;;5030321;28;20045;-47
2022/03/04 05:27:10;;;;;;;50.80;18.98;;;-1.10;99.90;;;;;;5031604;28;20044;-44
2022/03/04 05:29:35;;;;;;;58.50;21.35;;;-1.10;99.90;;;;;;5031894;28;20107;-46
2022/03/04 05:32:01;;;;;;;62.35;22.38;;;-1.10;99.90;;;;;;5030177;28;20041;-46
2022/03/04 05:34:27;;;;;;;62.20;23.83;;;-1.10;99.90;;;;;;5029703;28;20824;-47
2022/03/04 05:36:53;;;;;;;57.17;21.25;;;-1.20;99.90;;;;;;5029960;28;20076;-46
2022/03/04 05:39:19;;;;;;;60.85;24.45;;;-1.10;99.90;;;;;;5033516;28;20041;-48
2022/03/04 05:41:45;;;;;;;57.03;21.58;;;-1.20;99.90;;;;;;5033319;28;20056;-42
2022/03/04 05:44:11;;;;;;;58.97;22.33;;;-1.20;99.90;;;;;;5033353;28;20863;-42
2022/03/04 05:46:37;;;;;;;55.10;21.80;;;-1.20;99.90;;;;;;5033188;28;20048;-44
2022/03/04 05:49:03;;;;;;;57.00;22.02;;;-1.20;99.90;;;;;;5033145;28;20418;-42
2022/03/04 05:51:30;;;;;;;67.20;25.27;;;-1.20;99.90;;;;;;5033022;28;20803;-44
2022/03/04 05:53:56;;;;;;;62.05;24.02;;;-1.20;99.90;;;;;;5032572;28;20525;-41
2022/03/04 05:56:22;;;;;;;54.38;21.10;;;-1.20;99.90;;;;;;5033178;28;20045;-42
2022/03/04 05:58:48;;;;;;;57.78;23.80;;;-1.20;99.90;;;;;;5033016;28;20045;-44
2022/03/04 06:01:14;;;;;;;62.70;26.63;;;-1.20;99.90;;;;;;5032578;28;20041;-44
2022/03/04 06:03:40;;;;;;;64.63;23.85;;;-1.20;99.90;;;;;;5032492;28;20502;-47
2022/03/04 06:06:09;;;;;;;64.70;24.98;;;-1.10;99.90;;;;;;5033073;28;20116;-45
2022/03/04 06:08:34;;;;;;;60.88;21.83;;;-1.20;99.90;;;;;;5032058;28;20073;-48
2022/03/04 06:11:00;;;;;;;62.30;23.73;;;-1.10;99.90;;;;;;5033031;28;20065;-48
2022/03/04 06:13:26;;;;;;;60.78;25.95;;;-1.10;99.90;;;;;;5033146;28;20041;-47
2022/03/04 06:15:52;;;;;;;59.58;24.17;;;-1.10;99.90;;;;;;5033029;28;20786;-48
2022/03/04 06:18:18;;;;;;;59.28;23.55;;;-1.00;99.90;;;;;;5033153;28;20049;-49
2022/03/04 06:20:45;;;;;;;61.58;25.67;;;-1.00;99.90;;;;;;5032753;28;20099;-48
2022/03/04 06:23:11;;;;;;;53.85;24.35;;;-1.00;99.90;;;;;;5032668;28;20042;-46
2022/03/04 06:25:37;;;;;;;51.45;21.85;;;-0.40;99.90;;;;;;5032886;28;20053;-51
2022/03/04 06:28:04;;;;;;;45.60;20.63;;;-1.10;99.90;;;;;;5032600;28;20045;-48
2022/03/04 06:30:36;;;;;;;53.00;20.60;;;-1.00;99.90;;;;;;5033019;28;20057;-48
2022/03/04 06:35:47;;;;;;;57.20;21.65;;;-1.00;99.90;;;;;;5032528;28;20506;-48
2022/03/04 06:38:13;;;;;;;50.47;23.05;;;-1.10;99.90;;;;;;5032472;28;20445;-49
2022/03/04 06:40:39;;;;;;;52.40;22.88;;;-1.10;99.90;;;;;;5032319;28;20565;-48
2022/03/04 06:43:06;;;;;;;51.15;21.13;;;-1.00;99.90;;;;;;5032258;28;20049;-47
2022/03/04 06:45:32;;;;;;;54.50;23.88;;;-1.00;99.90;;;;;;5032648;28;20045;-48
2022/03/04 06:47:58;;;;;;;46.05;20.30;;;0.10;99.90;;;;;;5031996;28;20049;-48
2022/03/04 06:50:24;;;;;;;51.15;22.35;;;-1.00;99.90;;;;;;5031385;28;20495;-51
2022/03/04 06:52:53;;;;;;;48.70;21.33;;;-1.00;99.90;;;;;;5032172;28;20056;-49
2022/03/04 06:55:19;;;;;;;49.97;22.88;;;-0.90;99.90;;;;;;5032422;28;20077;-49
2022/03/04 06:57:46;;;;;;;55.30;22.20;;;-0.20;99.90;;;;;;5031560;28;20151;-49
2022/03/04 07:00:13;;;;;;;47.63;22.02;;;-0.40;99.90;;;;;;5031902;28;20072;-49
2022/03/04 07:02:39;;;;;;;56.50;22.40;;;-0.90;99.90;;;;;;5031928;28;20131;-48
2022/03/04 07:05:09;;;;;;;47.50;20.95;;;-0.90;99.90;;;;;;5031677;28;20045;-48
2022/03/04 07:07:35;;;;;;;53.70;21.55;;;-0.90;99.90;;;;;;5032035;28;20033;-48
2022/03/04 07:10:01;;;;;;;48.85;21.50;;;-0.80;99.90;;;;;;5031921;28;20037;-48
2022/03/04 07:12:27;;;;;;;50.67;22.23;;;-0.90;99.90;;;;;;5032000;28;20069;-48
2022/03/04 07:14:53;;;;;;;55.40;23.98;;;-0.80;99.90;;;;;;5031511;28;20166;-48
2022/03/04 07:17:19;;;;;;;46.67;21.95;;;-0.80;99.90;;;;;;5030132;28;20052;-50
2022/03/04 07:19:44;;;;;;;53.55;24.73;;;-0.80;99.90;;;;;;5031865;28;20352;-47
2022/03/04 07:22:10;;;;;;;46.63;22.10;;;-0.80;99.90;;;;;;5031172;28;20404;-51
2022/03/04 07:24:36;;;;;;;43.83;19.52;;;-0.70;99.90;;;;;;5031632;28;20042;-48
2022/03/04 07:27:02;;;;;;;42.60;20.40;;;-0.60;99.90;;;;;;5031950;28;20038;-48
2022/03/04 07:29:28;;;;;;;49.92;22.55;;;-0.60;99.90;;;;;;5031638;28;20487;-49
2022/03/04 07:31:54;;;;;;;47.83;23.27;;;-0.60;99.90;;;;;;5031660;28;20037;-49
2022/03/04 07:34:24;;;;;;;50.53;22.33;;;-0.50;99.90;;;;;;5031474;28;20045;-49
2022/03/04 07:36:51;;;;;;;42.10;20.48;;;-0.40;99.90;;;;;;5031609;28;20037;-51
2022/03/04 07:39:17;;;;;;;42.83;19.77;;;-0.40;99.90;;;;;;5031463;28;20037;-48
2022/03/04 07:41:43;;;;;;;40.75;18.48;;;-0.30;99.90;;;;;;5031443;28;20041;-48
2022/03/04 07:44:10;;;;;;;40.17;20.45;;;0.30;99.90;;;;;;5030983;28;20063;-50
2022/03/04 07:46:37;;;;;;;43.88;20.30;;;-0.40;99.90;;;;;;5031026;28;20483;-48
2022/03/04 07:49:03;;;;;;;45.40;19.58;;;-0.30;99.90;;;;;;5031184;28;20506;-51
2022/03/04 07:51:29;;;;;;;39.72;18.90;;;-0.30;99.90;;;;;;5030961;28;20043;-49
2022/03/04 07:53:55;;;;;;;42.70;19.98;;;-0.20;99.90;;;;;;5031165;28;20128;-49
2022/03/04 07:56:21;;;;;;;35.63;18.48;;;-0.20;99.90;;;;;;5030995;28;20120;-48
2022/03/04 07:58:47;;;;;;;41.83;18.95;;;-0.20;99.90;;;;;;5030888;28;20147;-51
2022/03/04 08:01:12;;;;;;;38.90;19.08;;;-0.20;99.90;;;;;;5030642;28;20045;-51
2022/03/04 08:03:38;;;;;;;40.33;19.67;;;-0.20;99.90;;;;;;5031052;28;20046;-49
2022/03/04 08:06:04;;;;;;;40.10;18.42;;;-0.20;99.90;;;;;;5031280;28;20037;-48
2022/03/04 08:08:29;;;;;;;47.90;20.75;;;-0.10;99.90;;;;;;5031154;28;20411;-53
2022/03/04 08:10:55;;;;;;;36.67;20.40;;;0.00;99.90;;;;;;5030895;28;20084;-49
2022/03/04 08:13:22;;;;;;;34.55;18.98;;;0.20;99.90;;;;;;5030307;28;20045;-49
2022/03/04 08:15:47;;;;;;;37.08;18.33;;;0.40;99.90;;;;;;5031024;28;20053;-48
2022/03/04 08:18:13;;;;;;;36.40;18.23;;;0.50;99.90;;;;;;5030695;28;20056;-48
2022/03/04 08:20:39;;;;;;;42.55;21.42;;;0.50;99.90;;;;;;5030694;28;20042;-49
2022/03/04 08:23:05;;;;;;;41.38;18.95;;;0.60;99.90;;;;;;5030569;28;20088;-50
2022/03/04 08:25:31;;;;;;;38.42;20.83;;;0.70;99.90;;;;;;5030409;28;20077;-49
2022/03/04 08:27:56;;;;;;;37.45;20.45;;;0.80;99.90;;;;;;5030752;28;20039;-49
2022/03/04 08:30:22;;;;;;;42.28;21.45;;;0.80;99.90;;;;;;5030781;28;20103;-48
2022/03/04 08:32:49;;;;;;;42.83;22.10;;;0.80;99.90;;;;;;5030567;28;20152;-50
2022/03/04 08:35:14;;;;;;;41.15;20.15;;;0.80;99.90;;;;;;5030590;28;20133;-48
2022/03/04 08:37:40;;;;;;;40.33;21.70;;;1.00;99.90;;;;;;5030551;28;20055;-51
2022/03/04 08:40:10;;;;;;;43.78;22.08;;;1.00;99.90;;;;;;5030785;28;20061;-50
2022/03/04 08:42:38;;;;;;;37.50;18.85;;;1.30;99.90;;;;;;5030451;28;20045;-49
2022/03/04 08:45:04;;;;;;;37.38;19.75;;;1.40;99.90;;;;;;5030779;28;20361;-50
2022/03/04 08:47:30;;;;;;;34.38;17.25;;;1.90;99.90;;;;;;5029372;28;20081;-50
2022/03/04 08:49:56;;;;;;;36.53;19.65;;;2.50;99.90;;;;;;5031141;28;20930;-48
2022/03/04 08:52:22;;;;;;;40.00;20.30;;;2.70;99.90;;;;;;5030770;28;20368;-52
2022/03/04 08:54:48;;;;;;;40.97;19.33;;;2.50;99.90;;;;;;5029152;28;20388;-49
2022/03/04 08:57:14;;;;;;;36.15;18.60;;;2.20;99.90;;;;;;5030376;28;20052;-49
2022/03/04 08:59:40;;;;;;;38.60;20.00;;;2.00;99.90;;;;;;5030275;28;20034;-51
2022/03/04 09:02:06;;;;;;;36.17;20.67;;;1.90;99.90;;;;;;5030467;28;20045;-48
2022/03/04 09:04:32;;;;;;;33.72;18.63;;;1.80;99.90;;;;;;5030365;28;20049;-49
2022/03/04 09:06:58;;;;;;;36.30;19.70;;;1.90;99.90;;;;;;5030702;28;20041;-50
2022/03/04 09:09:24;;;;;;;36.05;20.27;;;2.00;99.90;;;;;;5029937;28;20045;-49
2022/03/04 09:11:50;;;;;;;33.28;18.50;;;2.30;99.90;;;;;;5030564;28;20099;-50
2022/03/04 09:14:19;;;;;;;32.20;19.13;;;3.90;99.90;;;;;;5033844;28;20066;-49
2022/03/04 09:16:46;;;;;;;33.47;19.20;;;4.70;99.90;;;;;;5034239;28;20084;-53
2022/03/04 09:19:12;;;;;;;31.42;18.95;;;6.20;99.90;;;;;;5034096;28;20045;-49
2022/03/04 09:21:37;;;;;;;37.70;20.58;;;7.00;99.90;;;;;;5033783;28;20099;-50
2022/03/04 09:24:04;;;;;;;35.63;19.02;;;6.80;99.90;;;;;;5033343;28;20136;-51
2022/03/04 09:26:30;;;;;;;34.47;18.77;;;6.90;99.90;;;;;;5034298;28;20107;-52
2022/03/04 09:28:56;;;;;;;28.38;17.45;;;7.40;99.90;;;;;;5033910;28;20492;-48
2022/03/04 09:31:22;;;;;;;28.42;18.30;;;7.20;99.90;;;;;;5033796;28;20052;-49
2022/03/04 09:33:48;;;;;;;29.83;19.27;;;7.00;99.90;;;;;;5033820;28;20042;-48
2022/03/04 09:36:14;;;;;;;34.03;18.80;;;6.90;99.90;;;;;;5033910;28;20104;-49
2022/03/04 09:38:41;;;;;;;30.88;19.23;;;6.10;99.90;;;;;;5033312;28;20082;-48
2022/03/04 09:41:08;;;;;;;30.23;19.10;;;5.70;99.90;;;;;;5033663;28;20072;-50
2022/03/04 09:43:35;;;;;;;28.77;17.45;;;5.00;99.90;;;;;;5033119;28;20113;-52
2022/03/04 09:46:01;;;;;;;31.70;19.90;;;4.60;99.90;;;;;;5033689;28;20045;-49
2022/03/04 09:48:27;;;;;;;32.92;19.05;;;4.20;99.90;;;;;;5033301;28;20041;-51
2022/03/04 09:50:53;;;;;;;36.33;20.73;;;3.90;99.90;;;;;;5033428;28;20128;-50
2022/03/04 09:53:19;;;;;;;31.85;18.60;;;4.00;99.90;;;;;;5033551;28;20060;-49
2022/03/04 09:55:44;;;;;;;30.30;18.17;;;4.10;99.90;;;;;;5033225;28;20539;-49
2022/03/04 09:58:15;;;;;;;33.47;20.15;;;4.40;99.90;;;;;;5033487;28;20045;-50
2022/03/04 10:00:43;;;;;;;34.53;18.77;;;4.60;99.90;;;;;;5033555;28;20069;-52
2022/03/04 10:03:21;;;;;;;32.03;18.73;;;5.00;99.90;;;;;;5033468;28;20045;-51
2022/03/04 10:05:52;;;;;;;31.02;18.80;;;5.50;99.90;;;;;;5033381;28;20034;-49
2022/03/04 10:08:19;;;;;;;30.83;18.88;;;6.80;99.90;;;;;;5033004;28;20045;-50
2022/03/04 10:10:56;;;;;;;29.67;17.70;;;6.10;99.90;;;;;;5032819;28;20117;-53
2022/03/04 10:13:48;;;;;;;26.23;18.15;;;5.80;99.90;;;;;;5033109;28;20056;-50
2022/03/04 10:16:25;;;;;;;27.80;17.58;;;6.60;99.90;;;;;;5033164;28;20560;-52
2022/03/04 10:19:10;;;;;;;26.75;17.60;;;8.80;99.90;;;;;;5032702;28;20077;-49
2022/03/04 10:21:57;;;;;;;26.60;18.38;;;8.30;99.90;;;;;;5032539;28;20042;-49
2022/03/04 10:24:39;;;;;;;26.05;17.40;;;8.50;99.90;;;;;;5032329;28;20605;-49
2022/03/04 10:27:10;;;;;;;24.23;17.40;;;9.10;99.90;;;;;;5032846;28;20048;-49
2022/03/04 10:29:37;;;;;;;26.27;17.13;;;9.70;99.90;;;;;;5032405;28;20048;-49
2022/03/04 10:32:10;;;;;;;27.20;17.58;;;9.60;99.90;;;;;;5032247;28;20865;-52
2022/03/04 10:34:49;;;;;;;25.73;16.77;;;9.70;99.90;;;;;;5032764;28;20372;-50
2022/03/04 10:37:19;;;;;;;25.85;17.20;;;9.40;99.90;;;;;;5032779;28;20045;-49
2022/03/04 10:40:24;;;;;;;23.65;16.45;;;9.40;99.90;;;;;;5032155;28;20042;-51
2022/03/04 10:42:58;;;;;;;21.25;15.10;;;9.50;99.90;;;;;;5031896;28;20136;-51
2022/03/04 10:45:30;;;;;;;22.35;15.73;;;9.70;99.90;;;;;;5032603;28;20045;-49
2022/03/04 10:48:00;;;;;;;23.98;15.57;;;9.80;99.90;;;;;;5032750;28;20041;-51
2022/03/04 10:50:33;;;;;;;19.95;14.52;;;9.70;99.90;;;;;;5032339;28;20045;-50
2022/03/04 10:53:16;;;;;;;21.75;14.45;;;9.30;99.90;;;;;;5031819;28;20449;-49
2022/03/04 10:55:45;;;;;;;22.10;14.18;;;9.10;99.90;;;;;;5031767;28;20080;-50
2022/03/04 10:58:16;;;;;;;19.40;13.30;;;9.40;99.90;;;;;;5031952;28;20037;-49
2022/03/04 11:00:54;;;;;;;20.63;13.43;;;9.60;99.90;;;;;;5031747;28;20480;-50
2022/03/04 11:03:25;;;;;;;19.90;13.25;;;9.00;99.90;;;;;;5032189;28;20033;-53
2022/03/04 11:05:52;;;;;;;20.83;13.13;;;9.20;99.90;;;;;;5031838;28;20048;-50
2022/03/04 11:08:20;;;;;;;20.80;12.85;;;9.10;99.90;;;;;;5032161;28;20034;-49
2022/03/04 11:10:47;;;;;;;21.40;13.60;;;8.50;99.90;;;;;;5031574;28;20077;-51
2022/03/04 11:13:13;;;;;;;21.50;14.10;;;8.10;99.90;;;;;;5030206;28;20120;-48
2022/03/04 11:15:41;;;;;;;22.33;12.68;;;9.10;99.90;;;;;;5031211;28;20061;-53
2022/03/04 11:18:09;;;;;;;20.38;11.85;;;7.40;99.90;;;;;;5031888;28;20056;-48
2022/03/04 11:20:37;;;;;;;21.92;12.80;;;7.50;99.90;;;;;;5031951;28;20102;-50
2022/03/04 11:23:04;;;;;;;21.90;12.48;;;6.80;99.90;;;;;;5031461;28;20052;-48
2022/03/04 11:25:38;;;;;;;23.52;13.30;;;6.90;99.90;;;;;;5031928;28;20041;-53
2022/03/04 11:28:17;;;;;;;21.30;13.77;;;6.30;99.90;;;;;;5031463;28;20076;-48
2022/03/04 11:30:48;;;;;;;22.75;13.60;;;6.00;99.90;;;;;;5031299;28;20045;-49
2022/03/04 11:33:27;;;;;;;21.48;13.52;;;6.10;99.90;;;;;;5029964;28;20041;-49
2022/03/04 11:36:16;;;;;;;22.77;13.25;;;6.70;99.90;;;;;;5030675;28;20057;-49
2022/03/04 11:38:47;;;;;;;18.95;12.27;;;5.70;99.90;;;;;;5031244;28;20045;-50
2022/03/04 11:41:19;;;;;;;21.42;12.25;;;6.00;99.90;;;;;;5031217;28;20395;-51
2022/03/04 11:43:49;;;;;;;20.95;12.95;;;6.30;99.90;;;;;;5030863;28;20513;-49
2022/03/04 11:46:22;;;;;;;21.20;12.80;;;5.80;99.90;;;;;;5031547;28;20153;-51
2022/03/04 11:49:26;;;;;;;22.05;13.80;;;5.80;99.90;;;;;;5031180;28;20050;-49
2022/03/04 11:52:10;;;;;;;21.75;12.23;;;5.80;99.90;;;;;;5030884;28;20484;-51
2022/03/04 11:54:44;;;;;;;18.73;11.30;;;6.20;99.90;;;;;;5030850;28;20049;-51
2022/03/04 11:57:19;;;;;;;20.42;11.55;;;6.10;99.90;;;;;;5030996;28;20084;-48
2022/03/04 11:59:49;;;;;;;19.05;11.40;;;6.10;99.90;;;;;;5030384;28;20124;-48
2022/03/04 12:02:25;;;;;;;18.50;11.18;;;6.10;99.90;;;;;;5030755;28;20033;-49
2022/03/04 12:05:14;;;;;;;21.27;11.50;;;5.80;99.90;;;;;;5030396;28;20092;-49
2022/03/04 12:08:03;;;;;;;18.30;10.82;;;5.90;99.90;;;;;;5029042;28;20492;-52
2022/03/04 12:10:37;;;;;;;18.02;9.88;;;5.90;99.90;;;;;;5032353;28;20427;-49
2022/03/04 12:13:08;;;;;;;16.13;10.85;;;5.90;99.90;;;;;;5030246;28;20120;-48
2022/03/04 12:15:38;;;;;;;18.17;10.48;;;6.00;99.90;;;;;;5030237;28;20404;-49
2022/03/04 12:18:06;;;;;;;15.88;8.68;;;6.50;99.90;;;;;;5030751;28;20406;-50
2022/03/04 12:20:41;;;;;;;16.45;9.85;;;6.30;99.90;;;;;;5030439;28;20045;-49
2022/03/04 12:23:15;;;;;;;19.10;9.63;;;6.30;99.90;;;;;;5030587;28;20463;-48
2022/03/04 12:25:56;;;;;;;15.38;9.43;;;6.10;99.90;;;;;;5030644;28;20091;-49
2022/03/04 12:28:33;;;;;;;15.68;9.32;;;6.10;99.90;;;;;;5030335;28;20049;-50
2022/03/04 12:31:02;;;;;;;20.48;10.38;;;6.20;99.90;;;;;;5030493;28;20045;-52
2022/03/04 12:33:35;;;;;;;18.40;9.93;;;6.40;99.90;;;;;;5030324;28;20106;-50
2022/03/04 12:36:03;;;;;;;14.75;10.45;;;6.30;99.90;;;;;;5030408;28;20046;-50